createdAt,value
2018-08-25T00:01:58.273Z,14.30
2018-08-25T00:04:33.314Z,13.50
2018-08-25T00:07:08.358Z,13.93
2018-08-25T00:09:43.172Z,12.67
2018-08-25T00:12:17.732Z,14.67
2018-08-25T00:14:52.141Z,14.23
2018-08-25T00:17:26.735Z,13.87
2018-08-25T00:20:01.884Z,12.87
2018-08-25T00:22:36.570Z,12.90
2018-08-25T00:25:11.894Z,11.60
2018-08-25T00:27:46.648Z,12.90
2018-08-25T00:30:26.474Z,13.93
2018-08-25T00:33:00.982Z,14.47
2018-08-25T00:35:35.327Z,12.90
2018-08-25T00:38:10.146Z,13.10
2018-08-25T00:40:45.422Z,11.83
2018-08-25T00:43:20.380Z,14.47
2018-08-25T00:45:54.716Z,13.73
2018-08-25T00:48:29.266Z,12.53
2018-08-25T00:51:04.317Z,12.50
2018-08-25T00:53:38.978Z,12.57
2018-08-25T00:56:14.048Z,13.23
2018-08-25T00:58:48.752Z,13.53
2018-08-25T01:01:23.187Z,12.17
2018-08-25T01:03:58.460Z,13.60
2018-08-25T01:06:33.038Z,13.03
2018-08-25T01:09:09.123Z,13.83
2018-08-25T01:11:43.791Z,13.00
2018-08-25T01:14:18.720Z,14.90
2018-08-25T01:16:53.198Z,15.27
2018-08-25T01:19:28.219Z,14.30
2018-08-25T01:22:02.859Z,14.23
2018-08-25T01:24:37.692Z,14.20
2018-08-25T01:27:12.316Z,13.80
2018-08-25T01:29:46.840Z,14.73
2018-08-25T01:32:21.280Z,15.73
2018-08-25T01:34:56.004Z,13.40
2018-08-25T01:37:30.597Z,13.07
2018-08-25T01:40:05.657Z,14.57
2018-08-25T01:42:40.468Z,14.47
2018-08-25T01:45:14.840Z,13.30
2018-08-25T01:47:49.296Z,14.07
2018-08-25T01:50:23.700Z,12.80
2018-08-25T01:52:58.124Z,12.83
2018-08-25T01:55:32.747Z,12.57
2018-08-25T01:58:08.015Z,14.33
2018-08-25T02:00:42.612Z,14.17
2018-08-25T02:03:17.127Z,14.27
2018-08-25T02:05:51.451Z,12.17
2018-08-25T02:08:25.803Z,12.93
2018-08-25T02:11:00.590Z,12.43
2018-08-25T02:13:35.027Z,12.50
2018-08-25T02:16:09.835Z,11.90
2018-08-25T02:18:44.527Z,12.57
2018-08-25T02:21:19.627Z,11.87
2018-08-25T02:23:53.934Z,13.23
2018-08-25T02:26:28.479Z,11.27
2018-08-25T02:29:03.323Z,11.57
2018-08-25T02:31:37.752Z,12.13
2018-08-25T02:34:12.663Z,11.47
2018-08-25T02:36:47.757Z,14.53
2018-08-25T02:39:22.419Z,11.27
2018-08-25T02:41:56.824Z,11.70
2018-08-25T02:44:31.403Z,12.60
2018-08-25T02:47:05.902Z,12.60
2018-08-25T02:49:40.629Z,10.93
2018-08-25T02:52:15.575Z,12.87
2018-08-25T02:54:50.050Z,12.40
2018-08-25T02:57:24.567Z,12.70
2018-08-25T02:59:59.484Z,12.60
2018-08-25T03:02:33.991Z,11.37
2018-08-25T03:05:08.677Z,11.20
2018-08-25T03:07:43.880Z,11.23
2018-08-25T03:10:18.560Z,12.43
2018-08-25T03:12:52.942Z,12.37
2018-08-25T03:15:27.228Z,11.00
2018-08-25T03:18:01.912Z,11.83
2018-08-25T03:20:36.893Z,12.37
2018-08-25T03:23:11.279Z,11.37
2018-08-25T03:25:46.248Z,11.27
2018-08-25T03:28:20.794Z,11.47
2018-08-25T03:30:55.248Z,17.90
2018-08-25T03:33:29.640Z,10.03
2018-08-25T03:36:04.251Z,11.23
2018-08-25T03:38:38.966Z,12.63
2018-08-25T03:41:13.536Z,13.87
2018-08-25T03:43:47.969Z,11.83
2018-08-25T03:46:22.707Z,11.63
2018-08-25T03:48:57.216Z,12.90
2018-08-25T03:51:31.972Z,12.23
2018-08-25T03:54:06.971Z,11.33
2018-08-25T03:56:41.984Z,12.33
2018-08-25T03:59:16.618Z,11.30
2018-08-25T04:01:51.283Z,15.37
2018-08-25T04:04:25.791Z,11.73
2018-08-25T04:07:00.669Z,11.77
2018-08-25T04:09:35.047Z,10.97
2018-08-25T04:12:09.761Z,10.93
2018-08-25T04:14:44.942Z,10.50
2018-08-25T04:17:19.953Z,11.30
2018-08-25T04:19:54.695Z,9.67
2018-08-25T04:22:29.603Z,9.53
2018-08-25T04:25:04.773Z,10.07
2018-08-25T04:27:39.106Z,11.27
2018-08-25T04:30:13.492Z,10.73
2018-08-25T04:32:48.272Z,10.50
2018-08-25T04:35:22.924Z,12.20
2018-08-25T04:37:57.516Z,9.13
2018-08-25T04:40:32.340Z,8.73
2018-08-25T04:43:07.216Z,9.47
2018-08-25T04:45:41.872Z,11.17
2018-08-25T04:48:16.160Z,9.90
2018-08-25T04:50:50.767Z,9.20
2018-08-25T04:53:25.336Z,8.90
2018-08-25T04:56:00.404Z,9.20
2018-08-25T04:58:35.251Z,9.03
2018-08-25T05:01:09.831Z,11.10
2018-08-25T05:03:44.384Z,9.13
2018-08-25T05:06:19.419Z,8.87
2018-08-25T05:08:54.339Z,9.07
2018-08-25T05:11:28.621Z,8.73
2018-08-25T05:14:02.953Z,11.37
2018-08-25T05:16:37.301Z,9.60
2018-08-25T05:19:11.631Z,8.93
2018-08-25T05:21:46.396Z,10.33
2018-08-25T05:24:21.721Z,8.67
2018-08-25T05:26:56.428Z,9.53
2018-08-25T05:29:30.808Z,10.83
2018-08-25T05:32:05.668Z,8.17
2018-08-25T05:34:40.323Z,8.83
2018-08-25T05:37:14.932Z,7.93
2018-08-25T05:39:49.740Z,8.07
2018-08-25T05:42:24.204Z,8.33
2018-08-25T05:44:59.051Z,7.97
2018-08-25T05:47:33.532Z,8.53
2018-08-25T05:50:08.494Z,9.37
2018-08-25T05:52:43.500Z,7.77
2018-08-25T05:55:18.916Z,8.70
2018-08-25T05:57:53.487Z,9.23
2018-08-25T06:00:28.484Z,8.57
2018-08-25T06:03:03.211Z,8.70
2018-08-25T06:05:37.576Z,9.13
2018-08-25T06:08:12.053Z,7.77
2018-08-25T06:10:47.179Z,8.03
2018-08-25T06:13:22.012Z,8.67
2018-08-25T06:15:57.188Z,9.37
2018-08-25T06:18:32.240Z,9.83
2018-08-25T06:21:07.127Z,7.67
2018-08-25T06:23:41.431Z,9.33
2018-08-25T06:26:15.982Z,8.97
2018-08-25T06:28:50.723Z,9.93
2018-08-25T06:31:25.601Z,8.40
2018-08-25T06:34:00.364Z,9.30
2018-08-25T06:36:34.987Z,7.77
2018-08-25T06:39:10.683Z,7.80
2018-08-25T06:41:45.239Z,7.70
2018-08-25T06:44:19.824Z,7.53
2018-08-25T06:46:54.947Z,7.93
2018-08-25T06:49:29.249Z,10.00
2018-08-25T06:52:04.239Z,9.43
2018-08-25T06:54:38.808Z,7.43
2018-08-25T06:57:13.168Z,8.83
2018-08-25T06:59:47.959Z,8.47
2018-08-25T07:02:22.580Z,7.97
2018-08-25T07:04:57.376Z,9.03
2018-08-25T07:07:32.317Z,8.70
2018-08-25T07:10:07.451Z,7.00
2018-08-25T07:12:42.275Z,9.27
2018-08-25T07:15:17.116Z,7.70
2018-08-25T07:17:51.619Z,7.17
2018-08-25T07:20:26.197Z,8.33
2018-08-25T07:23:00.615Z,8.33
2018-08-25T07:25:36.121Z,7.37
2018-08-25T07:28:11.093Z,7.77
2018-08-25T07:30:45.789Z,6.93
2018-08-25T07:33:20.356Z,6.60
2018-08-25T07:35:54.832Z,6.57
2018-08-25T07:38:29.336Z,7.73
2018-08-25T07:41:03.641Z,7.20
2018-08-25T07:43:38.628Z,7.63
2018-08-25T07:46:13.325Z,7.27
2018-08-25T07:48:48.215Z,7.63
2018-08-25T07:51:22.678Z,6.53
2018-08-25T07:53:57.536Z,9.90
2018-08-25T07:56:31.952Z,8.33
2018-08-25T07:59:06.771Z,6.57
2018-08-25T08:01:41.475Z,8.83
2018-08-25T08:04:15.971Z,7.57
2018-08-25T08:06:50.761Z,8.13
2018-08-25T08:09:25.490Z,7.83
2018-08-25T08:12:00.774Z,8.43
2018-08-25T08:14:35.715Z,6.97
2018-08-25T08:17:10.119Z,5.67
2018-08-25T08:19:44.487Z,6.40
2018-08-25T08:22:18.975Z,11.10
2018-08-25T08:24:54.228Z,7.03
2018-08-25T08:27:29.048Z,7.57
2018-08-25T08:30:03.642Z,5.83
2018-08-25T08:32:38.408Z,7.23
2018-08-25T08:35:13.524Z,7.33
2018-08-25T08:37:48.171Z,7.10
2018-08-25T08:40:23.186Z,8.63
2018-08-25T08:42:58.332Z,7.53
2018-08-25T08:45:32.726Z,8.37
2018-08-25T08:48:07.732Z,6.60
2018-08-25T08:50:42.261Z,8.27
2018-08-25T08:53:16.942Z,7.00
2018-08-25T08:55:51.664Z,7.20
2018-08-25T08:58:26.687Z,8.30
2018-08-25T09:01:01.232Z,7.40
2018-08-25T09:03:35.987Z,8.20
2018-08-25T09:06:10.616Z,7.03
2018-08-25T09:08:45.115Z,6.17
2018-08-25T09:11:19.614Z,6.57
2018-08-25T09:13:54.564Z,5.37
2018-08-25T09:16:28.851Z,6.53
2018-08-25T09:19:03.905Z,7.27
2018-08-25T09:21:38.270Z,6.37
2018-08-25T09:24:12.745Z,6.23
2018-08-25T09:26:48.104Z,6.50
2018-08-25T09:29:22.635Z,5.97
2018-08-25T09:31:57.476Z,7.53
2018-08-25T09:34:32.572Z,5.77
2018-08-25T09:37:07.297Z,8.70
2018-08-25T09:39:41.944Z,6.33
2018-08-25T09:42:16.517Z,7.93
2018-08-25T09:44:51.059Z,5.37
2018-08-25T09:47:25.607Z,5.57
2018-08-25T09:50:00.024Z,6.77
2018-08-25T09:52:34.936Z,6.33
2018-08-25T09:55:09.550Z,5.30
2018-08-25T09:57:44.524Z,5.03
2018-08-25T10:00:19.156Z,6.03
2018-08-25T10:02:53.936Z,5.03
2018-08-25T10:05:28.956Z,6.57
2018-08-25T10:08:04.034Z,7.17
2018-08-25T10:10:38.423Z,5.73
2018-08-25T10:13:13.317Z,6.23
2018-08-25T10:15:47.752Z,5.93
2018-08-25T10:18:22.638Z,5.93
2018-08-25T10:20:57.211Z,6.60
2018-08-25T10:23:31.743Z,4.80
2018-08-25T10:26:06.608Z,5.83
2018-08-25T10:28:41.524Z,5.83
2018-08-25T10:31:16.412Z,4.57
2018-08-25T10:33:51.406Z,6.80
2018-08-25T10:36:25.771Z,5.43
2018-08-25T10:39:01.434Z,5.83
2018-08-25T10:41:35.987Z,6.30
2018-08-25T10:44:10.658Z,4.60
2018-08-25T10:46:45.063Z,6.70
2018-08-25T10:49:19.720Z,7.23
2018-08-25T10:51:54.483Z,6.93
2018-08-25T10:54:29.524Z,5.03
2018-08-25T10:57:04.250Z,5.77
2018-08-25T10:59:38.682Z,9.10
2018-08-25T11:02:19.751Z,5.77
2018-08-25T11:04:54.907Z,5.10
2018-08-25T11:07:29.504Z,5.37
2018-08-25T11:10:04.148Z,5.70
2018-08-25T11:12:38.699Z,6.83
2018-08-25T11:15:13.741Z,8.53
2018-08-25T11:17:48.855Z,8.07
2018-08-25T11:20:23.948Z,6.37
2018-08-25T11:22:58.391Z,7.53
2018-08-25T11:25:33.392Z,5.50
2018-08-25T11:28:08.339Z,6.87
2018-08-25T11:30:42.644Z,10.33
2018-08-25T11:33:16.892Z,7.90
2018-08-25T11:35:51.995Z,6.97
2018-08-25T11:38:26.431Z,4.83
2018-08-25T11:41:01.368Z,5.73
2018-08-25T11:43:36.235Z,5.90
2018-08-25T11:46:10.915Z,9.83
2018-08-25T11:48:45.231Z,7.70
2018-08-25T11:51:20.031Z,5.83
2018-08-25T11:53:54.629Z,6.13
2018-08-25T11:56:29.269Z,9.10
2018-08-25T11:59:04.023Z,7.20
2018-08-25T12:01:38.919Z,6.43
2018-08-25T12:04:13.812Z,7.20
2018-08-25T12:06:48.208Z,8.33
2018-08-25T12:09:22.676Z,6.77
2018-08-25T12:11:57.592Z,7.17
2018-08-25T12:14:32.719Z,7.47
2018-08-25T12:17:07.171Z,7.10
2018-08-25T12:19:42.210Z,6.40
2018-08-25T12:22:16.835Z,7.13
2018-08-25T12:24:51.380Z,7.83
2018-08-25T12:27:26.199Z,6.63
2018-08-25T12:30:00.588Z,7.13
2018-08-25T12:32:35.293Z,7.33
2018-08-25T12:35:09.584Z,7.67
2018-08-25T12:37:44.452Z,8.03
2018-08-25T12:40:19.723Z,8.90
2018-08-25T12:42:54.305Z,5.80
2018-08-25T12:45:28.739Z,6.03
2018-08-25T12:48:03.535Z,8.40
2018-08-25T12:50:38.567Z,7.00
2018-08-25T12:53:12.926Z,8.63
2018-08-25T12:55:47.531Z,9.43
2018-08-25T12:58:22.267Z,10.63
2018-08-25T13:00:56.899Z,9.57
2018-08-25T13:03:31.420Z,8.63
2018-08-25T13:06:06.856Z,9.37
2018-08-25T13:08:41.947Z,9.17
2018-08-25T13:11:16.684Z,8.07
2018-08-25T13:13:51.327Z,6.90
2018-08-25T13:16:25.732Z,8.10
2018-08-25T13:19:01.506Z,8.50
2018-08-25T13:21:36.179Z,6.80
2018-08-25T13:24:10.573Z,8.67
2018-08-25T13:26:45.392Z,8.97
2018-08-25T13:29:19.879Z,6.10
2018-08-25T13:31:54.473Z,7.60
2018-08-25T13:34:28.836Z,10.07
2018-08-25T13:37:03.797Z,5.60
2018-08-25T13:39:38.366Z,9.27
2018-08-25T13:42:13.083Z,8.13
2018-08-25T13:44:47.429Z,8.23
2018-08-25T13:47:22.088Z,6.90
2018-08-25T13:49:57.317Z,9.17
2018-08-25T13:52:32.183Z,7.67
2018-08-25T13:55:07.343Z,11.77
2018-08-25T13:57:42.021Z,9.70
2018-08-25T14:00:16.848Z,8.77
2018-08-25T14:02:51.352Z,8.47
2018-08-25T14:05:26.672Z,10.37
2018-08-25T14:08:01.144Z,9.40
2018-08-25T14:10:35.995Z,9.63
2018-08-25T14:13:10.719Z,8.43
2018-08-25T14:15:44.971Z,9.87
2018-08-25T14:18:19.737Z,6.57
2018-08-25T14:20:54.705Z,7.37
2018-08-25T14:23:29.432Z,8.93
2018-08-25T14:26:04.131Z,9.47
2018-08-25T14:28:38.404Z,8.53
2018-08-25T14:31:13.019Z,9.50
2018-08-25T14:33:47.924Z,7.70
2018-08-25T14:36:22.675Z,9.60
2018-08-25T14:38:57.303Z,8.17
2018-08-25T14:41:31.748Z,8.77
2018-08-25T14:44:06.776Z,6.80
2018-08-25T14:46:41.720Z,6.17
2018-08-25T14:49:16.495Z,7.63
2018-08-25T14:51:51.495Z,7.23
2018-08-25T14:54:26.337Z,7.63
2018-08-25T14:57:00.875Z,6.23
2018-08-25T14:59:35.383Z,6.30
2018-08-25T15:02:10.231Z,7.00
2018-08-25T15:04:44.935Z,6.70
2018-08-25T15:07:19.775Z,8.90
2018-08-25T15:09:54.171Z,5.60
2018-08-25T15:12:28.612Z,7.00
2018-08-25T15:15:03.143Z,9.50
2018-08-25T15:17:38.243Z,5.03
2018-08-25T15:20:13.211Z,6.57
2018-08-25T15:22:47.704Z,7.97
2018-08-25T15:25:22.268Z,7.53
2018-08-25T15:27:56.692Z,7.50
2018-08-25T15:30:31.476Z,7.00
2018-08-25T15:33:06.239Z,6.10
2018-08-25T15:35:42.334Z,7.57
2018-08-25T15:38:16.786Z,6.37
2018-08-25T15:40:51.319Z,6.23
2018-08-25T15:43:25.873Z,7.43
2018-08-25T15:46:00.279Z,5.90
2018-08-25T15:48:35.219Z,5.80
2018-08-25T15:51:09.583Z,6.10
2018-08-25T15:53:43.868Z,7.07
2018-08-25T15:56:18.332Z,10.63
2018-08-25T15:58:53.151Z,5.83
2018-08-25T16:01:27.707Z,7.23
2018-08-25T16:04:02.455Z,6.73
2018-08-25T16:06:37.146Z,6.53
2018-08-25T16:09:11.963Z,5.47
2018-08-25T16:11:47.287Z,5.90
2018-08-25T16:14:21.920Z,6.90
2018-08-25T16:16:56.912Z,8.30
2018-08-25T16:19:31.474Z,6.13
2018-08-25T16:22:07.060Z,7.33
2018-08-25T16:24:41.853Z,8.03
2018-08-25T16:27:17.009Z,5.40
2018-08-25T16:29:51.615Z,6.57
2018-08-25T16:32:26.366Z,6.40
2018-08-25T16:35:00.837Z,8.23
2018-08-25T16:37:35.562Z,5.53
2018-08-25T16:40:10.317Z,8.23
2018-08-25T16:42:45.719Z,8.67
2018-08-25T16:45:20.752Z,9.17
2018-08-25T16:47:55.643Z,5.40
2018-08-25T16:50:30.264Z,9.07
2018-08-25T16:53:05.776Z,6.80
2018-08-25T16:55:40.606Z,7.27
2018-08-25T16:58:15.120Z,7.43
2018-08-25T17:00:49.592Z,7.97
2018-08-25T17:03:24.462Z,6.53
2018-08-25T17:05:58.916Z,9.10
2018-08-25T17:08:33.631Z,7.37
2018-08-25T17:11:08.928Z,7.83
2018-08-25T17:13:43.416Z,5.97
2018-08-25T17:16:18.452Z,6.27
2018-08-25T17:18:53.316Z,7.57
2018-08-25T17:21:28.072Z,6.60
2018-08-25T17:24:02.359Z,5.50
2018-08-25T17:26:37.312Z,8.73
2018-08-25T17:29:11.939Z,9.17
2018-08-25T17:31:46.675Z,6.03
2018-08-25T17:34:21.076Z,5.57
2018-08-25T17:36:55.520Z,7.67
2018-08-25T17:39:30.315Z,7.67
2018-08-25T17:42:05.516Z,8.03
2018-08-25T17:44:39.904Z,7.30
2018-08-25T17:47:14.195Z,6.57
2018-08-25T17:49:48.701Z,6.47
2018-08-25T17:52:23.139Z,7.47
2018-08-25T17:54:58.003Z,5.73
2018-08-25T17:57:32.916Z,6.00
2018-08-25T18:00:07.976Z,7.27
2018-08-25T18:02:43.086Z,7.00
2018-08-25T18:05:17.848Z,7.40
2018-08-25T18:07:52.391Z,6.60
2018-08-25T18:10:27.308Z,6.60
2018-08-25T18:13:01.672Z,7.93
2018-08-25T18:15:36.859Z,5.37
2018-08-25T18:18:12.111Z,7.03
2018-08-25T18:20:46.917Z,9.03
2018-08-25T18:23:22.075Z,7.47
2018-08-25T18:25:57.207Z,6.63
2018-08-25T18:28:31.720Z,7.93
2018-08-25T18:31:06.192Z,8.00
2018-08-25T18:33:40.715Z,5.53
2018-08-25T18:36:15.488Z,7.37
2018-08-25T18:38:50.898Z,6.20
2018-08-25T18:41:25.796Z,5.70
2018-08-25T18:44:00.829Z,6.90
2018-08-25T18:46:35.367Z,7.53
2018-08-25T18:49:09.871Z,6.53
2018-08-25T18:51:44.959Z,6.63
2018-08-25T18:54:20.279Z,7.13
2018-08-25T18:56:54.896Z,5.13
2018-08-25T18:59:29.595Z,4.80
2018-08-25T19:02:04.393Z,6.93
2018-08-25T19:04:39.403Z,6.30
2018-08-25T19:07:14.436Z,7.67
2018-08-25T19:09:50.307Z,7.63
2018-08-25T19:12:24.970Z,5.33
2018-08-25T19:14:59.336Z,6.17
2018-08-25T19:17:33.698Z,5.73
2018-08-25T19:20:08.244Z,4.97
2018-08-25T19:22:42.768Z,5.23
2018-08-25T19:25:17.842Z,7.87
2018-08-25T19:27:52.301Z,5.37
2018-08-25T19:30:26.705Z,5.47
2018-08-25T19:33:01.975Z,5.87
2018-08-25T19:35:36.947Z,5.93
2018-08-25T19:38:11.879Z,6.70
2018-08-25T19:40:46.668Z,5.40
2018-08-25T19:43:22.015Z,6.67
2018-08-25T19:45:56.428Z,5.67
2018-08-25T19:48:30.884Z,6.90
2018-08-25T19:51:05.207Z,6.27
2018-08-25T19:53:39.835Z,5.63
2018-08-25T19:56:14.459Z,6.57
2018-08-25T19:58:48.939Z,5.27
2018-08-25T20:01:23.299Z,6.50
2018-08-25T20:03:58.150Z,5.00
2018-08-25T20:06:32.976Z,4.40
2018-08-25T20:09:08.075Z,8.27
2018-08-25T20:11:42.723Z,4.47
2018-08-25T20:14:17.331Z,6.80
2018-08-25T20:16:52.136Z,7.13
2018-08-25T20:19:27.207Z,5.80
2018-08-25T20:22:01.692Z,5.17
2018-08-25T20:24:36.171Z,6.90
2018-08-25T20:27:10.946Z,6.23
2018-08-25T20:29:45.854Z,5.53
2018-08-25T20:32:20.524Z,5.60
2018-08-25T20:34:55.124Z,4.17
2018-08-25T20:37:30.056Z,7.17
2018-08-25T20:40:04.823Z,4.60
2018-08-25T20:42:39.608Z,5.63
2018-08-25T20:45:14.032Z,4.30
2018-08-25T20:47:48.686Z,4.40
2018-08-25T20:50:23.140Z,4.80
2018-08-25T20:52:57.798Z,5.03
2018-08-25T20:55:32.169Z,4.70
2018-08-25T20:58:07.048Z,4.50
2018-08-25T21:00:41.858Z,4.97
2018-08-25T21:03:16.615Z,5.90
2018-08-25T21:05:51.300Z,5.30
2018-08-25T21:08:26.722Z,5.07
2018-08-25T21:11:01.005Z,5.10
2018-08-25T21:13:35.823Z,5.33
2018-08-25T21:16:10.455Z,4.13
2018-08-25T21:18:45.834Z,5.13
2018-08-25T21:21:20.734Z,6.27
2018-08-25T21:23:55.303Z,5.10
2018-08-25T21:26:30.152Z,4.10
2018-08-25T21:29:04.519Z,3.40
2018-08-25T21:31:39.022Z,3.97
2018-08-25T21:34:13.462Z,3.00
2018-08-25T21:36:47.899Z,4.00
2018-08-25T21:39:22.217Z,4.23
2018-08-25T21:41:56.979Z,3.57
2018-08-25T21:44:31.533Z,6.50
2018-08-25T21:47:06.207Z,3.80
2018-08-25T21:49:40.764Z,3.30
2018-08-25T21:52:15.421Z,3.30
2018-08-25T21:54:50.483Z,3.57
2018-08-25T21:57:24.975Z,3.13
2018-08-25T21:59:59.381Z,2.93
2018-08-25T22:02:33.764Z,2.70
2018-08-25T22:05:08.592Z,3.53
2018-08-25T22:07:43.777Z,2.93
2018-08-25T22:10:18.161Z,3.20
2018-08-25T22:12:53.111Z,2.93
2018-08-25T22:15:27.619Z,4.07
2018-08-25T22:18:02.071Z,3.27
2018-08-25T22:20:36.740Z,3.20
2018-08-25T22:23:11.411Z,3.63
2018-08-25T22:25:46.176Z,3.27
2018-08-25T22:28:20.611Z,3.50
2018-08-25T22:30:55.221Z,3.70
2018-08-25T22:33:29.789Z,3.40
2018-08-25T22:36:04.752Z,3.20
2018-08-25T22:38:39.140Z,3.33
2018-08-25T22:41:13.496Z,3.57
2018-08-25T22:43:48.114Z,3.93
2018-08-25T22:46:22.856Z,3.20
2018-08-25T22:48:57.567Z,3.27
2018-08-25T22:51:32.241Z,3.20
2018-08-25T22:54:07.917Z,2.83
2018-08-25T22:56:42.525Z,3.20
2018-08-25T22:59:17.000Z,2.90
2018-08-25T23:01:53.270Z,2.97
2018-08-25T23:04:27.755Z,3.50
2018-08-25T23:07:02.271Z,3.13
2018-08-25T23:09:37.295Z,3.47
2018-08-25T23:12:12.038Z,3.23
2018-08-25T23:14:46.853Z,3.07
2018-08-25T23:17:21.843Z,3.80
2018-08-25T23:19:57.329Z,4.03
2018-08-25T23:22:32.279Z,3.20
2018-08-25T23:25:06.713Z,4.33
2018-08-25T23:27:41.040Z,3.03
2018-08-25T23:30:15.520Z,3.50
2018-08-25T23:32:50.744Z,3.63
2018-08-25T23:35:25.080Z,3.33
2018-08-25T23:37:59.762Z,4.07
2018-08-25T23:40:34.517Z,3.73
2018-08-25T23:43:09.308Z,3.40
2018-08-25T23:45:44.260Z,3.87
2018-08-25T23:48:19.020Z,3.50
2018-08-25T23:50:53.476Z,4.47
2018-08-25T23:53:28.492Z,4.40
2018-08-25T23:56:03.815Z,3.70
2018-08-25T23:58:38.275Z,4.37
